Terminal Aerodrome Forecast
Issued by NWS

Home | Current Version | Previous Version | Graphics & Text | Print | Product List | Glossary On
Versions: 1 2 3 4 5 6 7 8 9 10 11 12 13 14 15 16
000
FTUS42 KMHX 171138
TAFISO
TAF
KISO 171138Z 1712/1812 23005KT P6SM SCT007 OVC010
      TEMPO 1712/1715 5SM BR BKN008
     FM171800 22008KT P6SM SCT015 BKN080
     FM180600 22009KT 6SM -SHRA SCT030 BKN050 WS020/25040KT
      AMD LTD TO CLD VIS AND WIND=

USA.gov is the U.S. government's official web portal to all federal, state and local government web resources and services.